Nearby METAR Reports

 

KMMK - Meriden, Connecticut, USA
Distance from station: SSE 6mi, 10km
Updated: Mon, 01-17-2022 3:53am EST
Light snow, Mist, Overcast
Light snow, Mist, Overcast
 Wind from ENE
Wind: ENE 16 mph , 26 km/h, Gust: 32 mph , 52 km/h
Temperature: 36°F , 2°C
Wind Chill: 26°F , -3°C
Dew Point: 30°F , -1°C
Humidity: 81%
Barometer: 29.42 inHg , 996.3 hPa
Summary: Light snow, Mist
Clouds: Overcast
Visibility: 6 miles , 10 km
Cloud details: Overcast 1500 ft
2022/01/17 08:53 KMMK 170853Z AUTO 07014G28KT 6SM -SN BR OVC015 02/M01 A2942 RMK AO2 PK WND 07028/0849 RAE53SNB53 PRESFR SLP964 6//// T00171006 58085 PNO $
KHFD - Hartford/Brainar, Connecticut, USA
Distance from station: NE 15mi, 25km
Updated: Mon, 01-17-2022 3:53am EST
Light rain, Overcast
Light rain, Overcast
 Wind from ENE
Wind: ENE 14 mph , 22 km/h, Gust: 22 mph , 35 km/h
Temperature: 36°F , 2°C
Wind Chill: 27°F , -3°C
Dew Point: 30°F , -1°C
Humidity: 81%
Barometer: 29.49 inHg , 998.6 hPa
Summary: Light rain
Clouds: Overcast
Visibility: 7 miles , 11 km
Cloud details: Few Clouds 1100 ft
Overcast 1600 ft
2022/01/17 08:53 KHFD 170853Z AUTO 06012G19KT 7SM -RA FEW011 OVC016 02/M01 A2949 RMK AO2 RAB24SNE24 PRESFR SLP985 P0006 60017 T00221006 58113
 
KOXC - Oxford/Waterbury, Connecticut, USA
Distance from station: SW 16mi, 25km
Updated: Mon, 01-17-2022 4:21am EST
Mist, Overcast
Mist, Overcast
 Wind from ENE
Wind: ENE 21 mph , 33 km/h, Gust: 36 mph , 57 km/h
Temperature: 34°F , 1°C
Wind Chill: 22°F , -6°C
Dew Point: 32°F , 0°C
Humidity: 93%
Barometer: 29.29 inHg , 991.9 hPa
Summary: Mist
Clouds: Overcast
Visibility: 3 miles , 5 km
Cloud details: Overcast 600 ft
2022/01/17 09:21 KOXC 170921Z AUTO 06018G31KT 3SM UP BR OVC006 01/00 A2929 RMK AO2 PK WND 06035/0905 CIG 006V010 PRESFR P0019 FZRANO
KHVN - New Haven/Tweed, Connecticut, USA
Distance from station: S 23mi, 37km
Updated: Mon, 01-17-2022 4:30am EST
Rain, Mist, Overcast
Rain, Mist, Overcast
 Wind from ENE
Wind: ENE 25 mph , 41 km/h, Gust: 45 mph , 72 km/h
Temperature: 41°F , 5°C
Wind Chill: 31°F , -1°C
Dew Point: 37°F , 3°C
Humidity: 87%
Barometer: 29.26 inHg , 990.9 hPa
Summary: Rain, Mist
Clouds: Overcast
Visibility: 3 miles , 5 km
Cloud details: Overcast 1400 ft
2022/01/17 09:30 KHVN 170930Z AUTO 07022G39KT 3SM RA BR OVC014 05/03 A2926 RMK AO2 PK WND 08039/0925 PRESFR P0011 T00500033
 
KSNC - Chester, Connecticut, USA
Distance from station: SE 25mi, 40km
Updated: Mon, 01-17-2022 4:35am EST
Rain, Overcast
Rain, Overcast
 Wind from E
Wind: E 15 mph , 24 km/h, Gust: 31 mph , 50 km/h
Temperature: 37°F , 3°C
Wind Chill: 28°F , -2°C
Dew Point: 37°F , 3°C
Humidity: 100%
Barometer: 29.33 inHg , 993.2 hPa
Summary: Rain
Clouds: Overcast
Visibility: 2 1/2 miles , 4 km
Cloud details: Mostly cloudy 600 ft
Overcast 1500 ft
2022/01/17 09:35 KSNC 170935Z AUTO 08013G27KT 050V110 2 1/2SM RA BKN006 OVC015 03/03 A2933 RMK AO2
KBDL - Windsor Locks, Connecticut, USA
Distance from station: NNE 25mi, 41km
Updated: Mon, 01-17-2022 4:15am EST
Light ice pellets, Rain, Overcast
Light ice pellets, Rain, Overcast
 Wind from NE
Wind: NE 16 mph , 26 km/h
Temperature: 34°F , 1°C
Wind Chill: 24°F , -4°C
Dew Point: 30°F , -1°C
Humidity: 87%
Barometer: 29.48 inHg , 998.3 hPa
Summary: Light ice pellets, Rain
Clouds: Overcast
Visibility: 8 miles , 13 km
Cloud details: Few Clouds 700 ft
Mostly cloudy 1500 ft
Overcast 2000 ft
2022/01/17 09:15 KBDL 170915Z 04014KT 8SM -PLRA FEW007 BKN015 OVC020 01/M01 A2948 RMK AO2 RAB01SNE0857PLB0857 PRESFR P0001 T00111006
 
KBDR - Bridgeport, Connecticut, USA
Distance from station: SSW 33mi, 52km
Updated: Mon, 01-17-2022 3:52am EST
Rain, Mist, Overcast
Rain, Mist, Overcast
 Wind from ENE
Wind: ENE 33 mph , 54 km/h, Gust: 45 mph , 72 km/h
Temperature: 37°F , 3°C
Wind Chill: 24°F , -4°C
Dew Point: 36°F , 2°C
Humidity: 93%
Barometer: 29.31 inHg , 992.5 hPa
Summary: Rain, Mist
Clouds: Overcast
Visibility: 4 miles , 6 km
Cloud details: Overcast 1100 ft
2022/01/17 08:52 KBDR 170852Z AUTO 06029G39KT 4SM RA BR OVC011 03/02 A2931 RMK AO2 PK WND 06041/0835 PRESFR SLP925 P0012 60034 T00330022 58121
KDXR - Danbury, Connecticut, USA
Distance from station: WSW 35mi, 56km
Updated: Mon, 01-17-2022 4:03am EST
Rain, Overcast
Rain, Overcast
 Wind from ENE
Wind: ENE 23 mph , 37 km/h, Gust: 38 mph , 61 km/h
Temperature: 37°F , 3°C
Wind Chill: 26°F , -3°C
Dew Point: 32°F , 0°C
Humidity: 81%
Barometer: 29.31 inHg , 992.5 hPa
Summary: Rain
Clouds: Overcast
Visibility: 5 miles , 8 km
Cloud details: Overcast 1100 ft
2022/01/17 09:03 KDXR 170903Z AUTO 06020G33KT 5SM RA OVC011 03/00 A2931 RMK AO2 PK WND 06033/0903 RAB00FZRAE00 PRESFR P0002 I1000 T00280000
 
KIJD - Willimantic, Connecticut, USA
Distance from station: ENE 38mi, 61km
Updated: Mon, 01-17-2022 3:52am EST
Light rain, Mist, Overcast
Light rain, Mist, Overcast
 Wind from ENE
Wind: ENE 21 mph , 33 km/h, Gust: 32 mph , 52 km/h
Temperature: 34°F , 1°C
Wind Chill: 22°F , -6°C
Dew Point: 30°F , -1°C
Humidity: 87%
Barometer: 29.51 inHg , 999.3 hPa
Summary: Light rain, Mist
Clouds: Overcast
Visibility: 6 miles , 10 km
Cloud details: Mostly cloudy 1300 ft
Mostly cloudy 1900 ft
Overcast 2600 ft
2022/01/17 08:52 KIJD 170852Z AUTO 06018G28KT 6SM -RA BR BKN013 BKN019 OVC026 01/M01 A2951 RMK AO2 PK WND 06028/0852 RAB37SNE37 PRESFR SLP994 P0018 60024 T00111006 58113 TSNO
KBAF - Westfield, Massachusetts, USA
Distance from station: NNE 40mi, 65km
Updated: Mon, 01-17-2022 4:35am EST
Light snow, Mist, Overcast
Light snow, Mist, Overcast
 Wind from NE
Wind: NE 18 mph , 30 km/h, Gust: 29 mph , 46 km/h
Temperature: 34°F , 1°C
Wind Chill: 23°F , -5°C
Dew Point: 30°F , -1°C
Humidity: 87%
Barometer: 29.47 inHg , 998 hPa
Summary: Light snow, Mist
Clouds: Overcast
Visibility: 4 miles , 6 km
Cloud details: Mostly cloudy 1100 ft
Overcast 1700 ft
2022/01/17 09:35 KBAF 170935Z AUTO 04016G25KT 4SM -SN BR BKN011 OVC017 01/M01 A2947 RMK AO2 PRESFR P0002 T00061011
 
KCEF - Chicopee/Westove, Massachusetts, USA
Distance from station: NNE 46mi, 73km
Updated: Mon, 01-17-2022 4:32am EST
Light rain, Mist, Overcast
Light rain, Mist, Overcast
 Wind from NE
Wind: NE 17 mph , 28 km/h, Gust: 24 mph , 39 km/h
Temperature: 34°F , 1°C
Wind Chill: 23°F , -5°C
Dew Point: 30°F , -1°C
Humidity: 87%
Barometer: 29.47 inHg , 998 hPa
Summary: Light rain, Mist
Clouds: Overcast
Visibility: 3 miles , 5 km
Cloud details: Few Clouds 1000 ft
Overcast 1600 ft
2022/01/17 09:32 KCEF 170932Z AUTO 05015G21KT 3SM -RA BR FEW010 OVC016 01/M01 A2947 RMK AO2 SNE09UPB09E10SNB10E16FZRAB16E24SNB24E32RAB32 CIG 012V016 SLP988
KGON - Groton/New Londo, Connecticut, USA
Distance from station: ESE 47mi, 76km
Updated: Mon, 01-17-2022 3:56am EST
Rain, Overcast
Rain, Overcast
 Wind from ENE
Wind: ENE 26 mph , 43 km/h, Gust: 44 mph , 70 km/h
Temperature: 39°F , 4°C
Wind Chill: 28°F , -2°C
Dew Point: 30°F , -1°C
Humidity: 70%
Barometer: 29.43 inHg , 996.6 hPa
Summary: Rain
Clouds: Overcast
Visibility: 5 miles , 8 km
Cloud details: Overcast 1000 ft
2022/01/17 08:56 KGON 170856Z AUTO 07023G38KT 5SM RA OVC010 04/M01 A2943 RMK AO2 PK WND 08042/0842 PRESFR SLP967 P0012 60034 T00441011 58122